sensor_id;sensor_type;location;lat;lon;timestamp;pressure;altitude;pressure_sealevel;temperature;humidity
48848;BME280;36611;51.638;5.784;2023-03-03T00:00:54;102348.75;;;21.03;30.47
48848;BME280;36611;51.638;5.784;2023-03-03T00:03:23;102346.75;;;21.05;30.58
48848;BME280;36611;51.638;5.784;2023-03-03T00:05:51;102351.19;;;21.06;30.21
48848;BME280;36611;51.638;5.784;2023-03-03T00:08:18;102349.31;;;21.06;30.37
48848;BME280;36611;51.638;5.784;2023-03-03T00:10:46;102353.94;;;21.06;30.38
48848;BME280;36611;51.638;5.784;2023-03-03T00:13:21;102354.94;;;21.05;30.14
48848;BME280;36611;51.638;5.784;2023-03-03T00:15:47;102355.63;;;20.97;30.40
48848;BME280;36611;51.638;5.784;2023-03-03T00:20:56;102352.34;;;21.03;30.36
48848;BME280;36611;51.638;5.784;2023-03-03T00:23:57;102358.38;;;21.07;30.33
48848;BME280;36611;51.638;5.784;2023-03-03T00:26:22;102355.66;;;21.07;30.20
48848;BME280;36611;51.638;5.784;2023-03-03T00:28:52;102365.72;;;21.06;30.27
48848;BME280;36611;51.638;5.784;2023-03-03T00:31:25;102365.00;;;21.04;30.25
48848;BME280;36611;51.638;5.784;2023-03-03T00:33:56;102362.41;;;21.03;30.33
48848;BME280;36611;51.638;5.784;2023-03-03T00:36:35;102373.47;;;21.01;30.03
48848;BME280;36611;51.638;5.784;2023-03-03T00:39:30;102375.19;;;21.02;30.26
48848;BME280;36611;51.638;5.784;2023-03-03T00:41:59;102366.13;;;21.02;30.36
48848;BME280;36611;51.638;5.784;2023-03-03T00:47:26;102381.38;;;21.04;30.55
48848;BME280;36611;51.638;5.784;2023-03-03T00:50:23;102377.78;;;21.04;30.07
48848;BME280;36611;51.638;5.784;2023-03-03T00:53:14;102382.25;;;21.05;30.29
48848;BME280;36611;51.638;5.784;2023-03-03T00:55:45;102374.06;;;21.05;30.33
48848;BME280;36611;51.638;5.784;2023-03-03T00:58:13;102371.47;;;21.03;30.22
48848;BME280;36611;51.638;5.784;2023-03-03T01:00:43;102375.63;;;20.98;30.26
48848;BME280;36611;51.638;5.784;2023-03-03T01:03:18;102381.34;;;20.94;30.18
48848;BME280;36611;51.638;5.784;2023-03-03T01:05:47;102380.34;;;20.96;30.17
48848;BME280;36611;51.638;5.784;2023-03-03T01:08:14;102382.22;;;20.95;30.16
48848;BME280;36611;51.638;5.784;2023-03-03T01:11:28;102374.03;;;20.95;30.21
48848;BME280;36611;51.638;5.784;2023-03-03T01:13:33;102380.34;;;20.96;30.11
48848;BME280;36611;51.638;5.784;2023-03-03T01:16:03;102385.53;;;20.99;29.96
48848;BME280;36611;51.638;5.784;2023-03-03T01:18:31;102381.53;;;21.03;30.26
48848;BME280;36611;51.638;5.784;2023-03-03T01:20:58;102389.00;;;21.01;30.08
48848;BME280;36611;51.638;5.784;2023-03-03T01:23:25;102394.47;;;21.01;30.12
48848;BME280;36611;51.638;5.784;2023-03-03T01:25:51;102397.19;;;21.01;30.19
48848;BME280;36611;51.638;5.784;2023-03-03T01:28:19;102395.03;;;21.04;30.13
48848;BME280;36611;51.638;5.784;2023-03-03T01:30:46;102390.44;;;21.05;29.85
48848;BME280;36611;51.638;5.784;2023-03-03T01:33:12;102380.53;;;21.04;30.05
48848;BME280;36611;51.638;5.784;2023-03-03T01:35:44;102385.84;;;21.05;30.22
48848;BME280;36611;51.638;5.784;2023-03-03T01:38:11;102388.44;;;21.07;29.75
48848;BME280;36611;51.638;5.784;2023-03-03T01:40:38;102388.44;;;21.07;30.00
48848;BME280;36611;51.638;5.784;2023-03-03T01:43:06;102385.69;;;21.07;29.95
48848;BME280;36611;51.638;5.784;2023-03-03T01:48:35;102390.59;;;21.03;29.79
48848;BME280;36611;51.638;5.784;2023-03-03T01:51:12;102392.59;;;21.01;29.96
48848;BME280;36611;51.638;5.784;2023-03-03T01:53:53;102395.47;;;21.00;29.91
48848;BME280;36611;51.638;5.784;2023-03-03T01:56:20;102387.25;;;21.00;29.65
48848;BME280;36611;51.638;5.784;2023-03-03T01:59:13;102392.72;;;21.00;29.93
48848;BME280;36611;51.638;5.784;2023-03-03T02:01:41;102388.28;;;20.99;29.73
48848;BME280;36611;51.638;5.784;2023-03-03T02:04:08;102390.00;;;21.00;29.61
48848;BME280;36611;51.638;5.784;2023-03-03T02:06:41;102398.34;;;20.98;29.73
48848;BME280;36611;51.638;5.784;2023-03-03T02:11:50;102393.16;;;20.95;29.83
48848;BME280;36611;51.638;5.784;2023-03-03T02:14:19;102396.75;;;20.96;29.94
48848;BME280;36611;51.638;5.784;2023-03-03T02:16:45;102399.47;;;20.96;29.73
48848;BME280;36611;51.638;5.784;2023-03-03T02:19:23;102391.56;;;20.92;29.68
48848;BME280;36611;51.638;5.784;2023-03-03T02:21:55;102393.56;;;20.90;29.28
48848;BME280;36611;51.638;5.784;2023-03-03T02:24:32;102397.03;;;20.92;29.96
48848;BME280;36611;51.638;5.784;2023-03-03T02:27:00;102393.28;;;20.93;29.53
48848;BME280;36611;51.638;5.784;2023-03-03T02:29:28;102395.00;;;20.94;29.65
48848;BME280;36611;51.638;5.784;2023-03-03T02:31:55;102392.69;;;20.90;29.88
48848;BME280;36611;51.638;5.784;2023-03-03T02:34:23;102400.31;;;20.86;29.36
48848;BME280;36611;51.638;5.784;2023-03-03T02:36:50;102398.84;;;20.82;29.44
48848;BME280;36611;51.638;5.784;2023-03-03T02:39:25;102396.38;;;20.79;29.44
48848;BME280;36611;51.638;5.784;2023-03-03T02:41:57;102397.63;;;20.75;29.41
48848;BME280;36611;51.638;5.784;2023-03-03T02:44:33;102402.38;;;20.73;30.03
48848;BME280;36611;51.638;5.784;2023-03-03T02:47:00;102397.78;;;20.74;29.95
48848;BME280;36611;51.638;5.784;2023-03-03T02:49:29;102395.06;;;20.74;29.85
48848;BME280;36611;51.638;5.784;2023-03-03T02:51:58;102391.19;;;20.76;29.77
48848;BME280;36611;51.638;5.784;2023-03-03T02:54:27;102395.38;;;20.80;30.05
48848;BME280;36611;51.638;5.784;2023-03-03T02:56:56;102396.72;;;20.86;29.55
48848;BME280;36611;51.638;5.784;2023-03-03T02:59:23;102398.56;;;20.85;29.73
48848;BME280;36611;51.638;5.784;2023-03-03T03:01:51;102400.72;;;20.82;29.48
48848;BME280;36611;51.638;5.784;2023-03-03T03:04:21;102396.78;;;20.75;29.61
48848;BME280;36611;51.638;5.784;2023-03-03T03:06:50;102390.44;;;20.74;29.70
48848;BME280;36611;51.638;5.784;2023-03-03T03:09:18;102390.72;;;20.71;29.70
48848;BME280;36611;51.638;5.784;2023-03-03T03:11:47;102387.13;;;20.71;29.47
48848;BME280;36611;51.638;5.784;2023-03-03T03:14:18;102391.00;;;20.68;29.72
48848;BME280;36611;51.638;5.784;2023-03-03T03:16:44;102393.88;;;20.67;29.77
48848;BME280;36611;51.638;5.784;2023-03-03T03:19:11;102395.75;;;20.66;29.71
48848;BME280;36611;51.638;5.784;2023-03-03T03:21:39;102395.47;;;20.69;29.46
48848;BME280;36611;51.638;5.784;2023-03-03T03:24:07;102404.38;;;20.71;29.76
48848;BME280;36611;51.638;5.784;2023-03-03T03:26:35;102393.59;;;20.70;29.70
48848;BME280;36611;51.638;5.784;2023-03-03T03:29:02;102396.31;;;20.70;29.49
48848;BME280;36611;51.638;5.784;2023-03-03T03:31:30;102401.34;;;20.65;29.97
48848;BME280;36611;51.638;5.784;2023-03-03T03:33:56;102396.00;;;20.63;29.85
48848;BME280;36611;51.638;5.784;2023-03-03T03:36:23;102399.75;;;20.62;29.79
48848;BME280;36611;51.638;5.784;2023-03-03T03:38:50;102407.78;;;20.63;29.86
48848;BME280;36611;51.638;5.784;2023-03-03T03:41:17;102405.19;;;20.62;29.92
48848;BME280;36611;51.638;5.784;2023-03-03T03:43:44;102405.19;;;20.62;29.91
48848;BME280;36611;51.638;5.784;2023-03-03T03:46:11;102397.28;;;20.59;29.94
48848;BME280;36611;51.638;5.784;2023-03-03T03:48:38;102399.88;;;20.60;29.95
48848;BME280;36611;51.638;5.784;2023-03-03T03:51:10;102402.59;;;20.60;29.79
48848;BME280;36611;51.638;5.784;2023-03-03T03:53:37;102408.78;;;20.62;29.56
48848;BME280;36611;51.638;5.784;2023-03-03T03:56:04;102403.34;;;20.62;29.58
48848;BME280;36611;51.638;5.784;2023-03-03T03:58:31;102407.94;;;20.62;29.52
48848;BME280;36611;51.638;5.784;2023-03-03T04:01:06;102402.34;;;20.63;29.68
48848;BME280;36611;51.638;5.784;2023-03-03T04:03:38;102398.59;;;20.65;29.85
48848;BME280;36611;51.638;5.784;2023-03-03T04:06:10;102401.19;;;20.66;29.46
48848;BME280;36611;51.638;5.784;2023-03-03T04:08:37;102410.13;;;20.68;29.77
48848;BME280;36611;51.638;5.784;2023-03-03T04:11:03;102400.34;;;20.66;29.59
48848;BME280;36611;51.638;5.784;2023-03-03T04:13:31;102410.66;;;20.62;29.94
48848;BME280;36611;51.638;5.784;2023-03-03T04:16:02;102415.66;;;20.57;29.96
48848;BME280;36611;51.638;5.784;2023-03-03T04:18:29;102412.94;;;20.57;29.76
48848;BME280;36611;51.638;5.784;2023-03-03T04:20:56;102421.00;;;20.58;29.55
48848;BME280;36611;51.638;5.784;2023-03-03T04:23:24;102407.06;;;20.61;29.76
48848;BME280;36611;51.638;5.784;2023-03-03T04:25:51;102405.06;;;20.63;29.76
48848;BME280;36611;51.638;5.784;2023-03-03T04:28:18;102412.25;;;20.65;29.42
48848;BME280;36611;51.638;5.784;2023-03-03T04:30:48;102413.13;;;20.65;29.71
48848;BME280;36611;51.638;5.784;2023-03-03T04:33:16;102408.66;;;20.64;29.61
48848;BME280;36611;51.638;5.784;2023-03-03T04:35:42;102406.78;;;20.65;29.71
48848;BME280;36611;51.638;5.784;2023-03-03T04:38:09;102407.78;;;20.63;29.86
48848;BME280;36611;51.638;5.784;2023-03-03T04:40:40;102415.84;;;20.65;29.49
48848;BME280;36611;51.638;5.784;2023-03-03T04:43:08;102399.47;;;20.65;29.80
48848;BME280;36611;51.638;5.784;2023-03-03T04:45:35;102402.19;;;20.65;29.59
48848;BME280;36611;51.638;5.784;2023-03-03T04:48:03;102411.25;;;20.66;29.78
48848;BME280;36611;51.638;5.784;2023-03-03T04:50:30;102406.78;;;20.65;29.47
48848;BME280;36611;51.638;5.784;2023-03-03T04:52:56;102407.34;;;20.58;29.45
48848;BME280;36611;51.638;5.784;2023-03-03T04:55:23;102411.34;;;20.54;29.69
48848;BME280;36611;51.638;5.784;2023-03-03T04:57:50;102412.22;;;20.55;29.52
48848;BME280;36611;51.638;5.784;2023-03-03T05:00:17;102425.59;;;20.58;29.78
48848;BME280;36611;51.638;5.784;2023-03-03T05:02:46;102419.41;;;20.56;29.76
48848;BME280;36611;51.638;5.784;2023-03-03T05:05:13;102426.44;;;20.58;29.47
48848;BME280;36611;51.638;5.784;2023-03-03T05:07:40;102422.72;;;20.59;29.59
48848;BME280;36611;51.638;5.784;2023-03-03T05:10:07;102426.03;;;20.63;29.47
48848;BME280;36611;51.638;5.784;2023-03-03T05:12:34;102430.78;;;20.61;29.71
48848;BME280;36611;51.638;5.784;2023-03-03T05:15:01;102432.50;;;20.62;29.80
48848;BME280;36611;51.638;5.784;2023-03-03T05:17:27;102427.03;;;20.62;29.46
48848;BME280;36611;51.638;5.784;2023-03-03T05:19:54;102429.78;;;20.62;29.41
48848;BME280;36611;51.638;5.784;2023-03-03T05:22:23;102423.31;;;20.63;29.94
48848;BME280;36611;51.638;5.784;2023-03-03T05:24:50;102425.91;;;20.65;29.48
48848;BME280;36611;51.638;5.784;2023-03-03T05:27:16;102430.91;;;20.59;29.80
48848;BME280;36611;51.638;5.784;2023-03-03T05:29:43;102435.31;;;20.51;29.70
48848;BME280;36611;51.638;5.784;2023-03-03T05:32:10;102423.97;;;20.35;29.85
48848;BME280;36611;51.638;5.784;2023-03-03T05:34:37;102425.25;;;20.30;30.11
48848;BME280;36611;51.638;5.784;2023-03-03T05:37:03;102427.22;;;20.40;29.55
48848;BME280;36611;51.638;5.784;2023-03-03T05:39:33;102428.41;;;20.47;29.88
48848;BME280;36611;51.638;5.784;2023-03-03T05:42:00;102425.53;;;20.48;29.53
48848;BME280;36611;51.638;5.784;2023-03-03T05:44:27;102429.00;;;20.50;29.95
48848;BME280;36611;51.638;5.784;2023-03-03T05:46:54;102427.13;;;20.51;29.59
48848;BME280;36611;51.638;5.784;2023-03-03T05:49:23;102426.84;;;20.54;29.66
48848;BME280;36611;51.638;5.784;2023-03-03T05:51:50;102425.13;;;20.53;29.82
48848;BME280;36611;51.638;5.784;2023-03-03T05:54:16;102422.25;;;20.54;29.77
48848;BME280;36611;51.638;5.784;2023-03-03T05:56:43;102429.31;;;20.57;29.81
48848;BME280;36611;51.638;5.784;2023-03-03T05:59:09;102430.03;;;20.59;29.70
48848;BME280;36611;51.638;5.784;2023-03-03T06:01:36;102426.31;;;20.60;29.57
48848;BME280;36611;51.638;5.784;2023-03-03T06:04:03;102429.91;;;20.60;29.76
48848;BME280;36611;51.638;5.784;2023-03-03T06:06:29;102432.03;;;20.57;30.00
48848;BME280;36611;51.638;5.784;2023-03-03T06:08:56;102436.78;;;20.55;29.96
48848;BME280;36611;51.638;5.784;2023-03-03T06:11:23;102437.19;;;20.50;29.45
48848;BME280;36611;51.638;5.784;2023-03-03T06:13:49;102435.50;;;20.38;29.76
48848;BME280;36611;51.638;5.784;2023-03-03T06:16:16;102437.03;;;20.31;29.91
48848;BME280;36611;51.638;5.784;2023-03-03T06:18:45;102445.81;;;20.35;29.92
48848;BME280;36611;51.638;5.784;2023-03-03T06:21:12;102451.78;;;20.40;30.14
48848;BME280;36611;51.638;5.784;2023-03-03T06:23:39;102455.97;;;20.44;30.03
48848;BME280;36611;51.638;5.784;2023-03-03T06:26:06;102453.56;;;20.50;29.91
48848;BME280;36611;51.638;5.784;2023-03-03T06:28:33;102460.00;;;20.49;30.02
48848;BME280;36611;51.638;5.784;2023-03-03T06:30:59;102455.28;;;20.51;29.73
48848;BME280;36611;51.638;5.784;2023-03-03T06:33:26;102457.75;;;20.54;29.83
48848;BME280;36611;51.638;5.784;2023-03-03T06:35:53;102472.25;;;20.55;29.88
48848;BME280;36611;51.638;5.784;2023-03-03T06:38:20;102466.66;;;20.56;29.94
48848;BME280;36611;51.638;5.784;2023-03-03T06:40:57;102473.00;;;20.57;29.71
48848;BME280;36611;51.638;5.784;2023-03-03T06:43:24;102474.97;;;20.55;29.84
48848;BME280;36611;51.638;5.784;2023-03-03T06:45:50;102478.97;;;20.51;29.99
48848;BME280;36611;51.638;5.784;2023-03-03T06:48:17;102484.44;;;20.51;29.71
48848;BME280;36611;51.638;5.784;2023-03-03T06:50:43;102488.91;;;20.52;29.74
48848;BME280;36611;51.638;5.784;2023-03-03T06:53:16;102484.19;;;20.54;29.89
48848;BME280;36611;51.638;5.784;2023-03-03T06:55:43;102487.16;;;20.51;29.48
48848;BME280;36611;51.638;5.784;2023-03-03T06:58:16;102486.63;;;20.36;29.94
48848;BME280;36611;51.638;5.784;2023-03-03T07:00:44;102488.00;;;20.30;29.71
48848;BME280;36611;51.638;5.784;2023-03-03T07:03:18;102497.41;;;20.38;30.08
48848;BME280;36611;51.638;5.784;2023-03-03T07:05:47;102494.16;;;20.44;30.03
48848;BME280;36611;51.638;5.784;2023-03-03T07:08:18;102495.03;;;20.44;29.87
48848;BME280;36611;51.638;5.784;2023-03-03T07:10:46;102497.03;;;20.42;29.80
48848;BME280;36611;51.638;5.784;2023-03-03T07:13:26;102500.94;;;20.49;30.02
48848;BME280;36611;51.638;5.784;2023-03-03T07:16:00;102508.00;;;20.52;29.89
48848;BME280;36611;51.638;5.784;2023-03-03T07:21:16;102503.69;;;20.49;29.90
48848;BME280;36611;51.638;5.784;2023-03-03T07:23:43;102515.19;;;20.53;30.02
48848;BME280;36611;51.638;5.784;2023-03-03T07:26:19;102509.47;;;20.56;30.15
48848;BME280;36611;51.638;5.784;2023-03-03T07:28:57;102513.47;;;20.52;29.57
48848;BME280;36611;51.638;5.784;2023-03-03T07:33:54;102511.19;;;20.57;29.93
48848;BME280;36611;51.638;5.784;2023-03-03T07:36:34;102526.72;;;20.56;29.89
48848;BME280;36611;51.638;5.784;2023-03-03T07:39:10;102517.66;;;20.56;30.04
48848;BME280;36611;51.638;5.784;2023-03-03T07:41:41;102523.59;;;20.29;30.15
48848;BME280;36611;51.638;5.784;2023-03-03T07:44:21;102525.72;;;20.25;30.61
48848;BME280;36611;51.638;5.784;2023-03-03T07:46:49;102530.97;;;20.17;30.98
48848;BME280;36611;51.638;5.784;2023-03-03T07:49:33;102535.53;;;20.28;31.32
48848;BME280;36611;51.638;5.784;2023-03-03T07:54:51;102534.56;;;20.50;31.51
48848;BME280;36611;51.638;5.784;2023-03-03T07:57:48;102543.44;;;20.63;30.97
48848;BME280;36611;51.638;5.784;2023-03-03T08:03:03;102537.63;;;20.77;31.47
48848;BME280;36611;51.638;5.784;2023-03-03T08:05:34;102540.97;;;20.81;31.10
48848;BME280;36611;51.638;5.784;2023-03-03T08:10:48;102540.31;;;20.88;31.28
48848;BME280;36611;51.638;5.784;2023-03-03T08:16:36;102542.50;;;20.94;31.23
48848;BME280;36611;51.638;5.784;2023-03-03T08:18:50;102543.38;;;20.95;31.17
48848;BME280;36611;51.638;5.784;2023-03-03T08:21:20;102547.81;;;20.96;31.42
48848;BME280;36611;51.638;5.784;2023-03-03T08:23:47;102553.44;;;20.94;31.57
48848;BME280;36611;51.638;5.784;2023-03-03T08:26:20;102556.03;;;20.96;31.49
48848;BME280;36611;51.638;5.784;2023-03-03T08:28:47;102562.34;;;20.97;31.87
48848;BME280;36611;51.638;5.784;2023-03-03T08:31:13;102566.22;;;20.94;32.03
48848;BME280;36611;51.638;5.784;2023-03-03T08:33:53;102568.53;;;20.78;31.73
48848;BME280;36611;51.638;5.784;2023-03-03T08:36:20;102578.44;;;20.58;31.96
48848;BME280;36611;51.638;5.784;2023-03-03T08:38:47;102577.25;;;20.51;32.14
48848;BME280;36611;51.638;5.784;2023-03-03T08:41:13;102578.03;;;20.42;32.12
48848;BME280;36611;51.638;5.784;2023-03-03T08:43:40;102578.38;;;20.48;32.27
48848;BME280;36611;51.638;5.784;2023-03-03T08:46:08;102579.66;;;20.65;32.53
48848;BME280;36611;51.638;5.784;2023-03-03T08:48:39;102581.13;;;20.69;32.22
48848;BME280;36611;51.638;5.784;2023-03-03T08:51:06;102578.97;;;20.73;32.23
48848;BME280;36611;51.638;5.784;2023-03-03T08:53:33;102582.81;;;20.81;31.98
48848;BME280;36611;51.638;5.784;2023-03-03T08:56:02;102577.94;;;20.85;31.98
48848;BME280;36611;51.638;5.784;2023-03-03T08:58:30;102573.09;;;20.88;32.27
48848;BME280;36611;51.638;5.784;2023-03-03T09:01:03;102589.19;;;20.91;32.30
48848;BME280;36611;51.638;5.784;2023-03-03T09:03:30;102583.47;;;20.94;32.28
48848;BME280;36611;51.638;5.784;2023-03-03T09:05:57;102585.94;;;20.98;31.85
48848;BME280;36611;51.638;5.784;2023-03-03T09:08:23;102583.00;;;20.89;31.84
48848;BME280;36611;51.638;5.784;2023-03-03T09:10:50;102584.75;;;20.90;32.06
48848;BME280;36611;51.638;5.784;2023-03-03T09:13:18;102591.06;;;20.91;31.67
48848;BME280;36611;51.638;5.784;2023-03-03T09:15:46;102593.47;;;20.84;31.97
48848;BME280;36611;51.638;5.784;2023-03-03T09:18:18;102597.94;;;20.85;31.40
48848;BME280;36611;51.638;5.784;2023-03-03T09:20:49;102590.16;;;20.70;31.32
48848;BME280;36611;51.638;5.784;2023-03-03T09:23:35;102586.31;;;20.51;31.82
48848;BME280;36611;51.638;5.784;2023-03-03T09:28:47;102600.84;;;20.41;31.77
48848;BME280;36611;51.638;5.784;2023-03-03T09:31:23;102603.59;;;20.41;32.20
48848;BME280;36611;51.638;5.784;2023-03-03T09:33:51;102599.88;;;20.42;32.06
48848;BME280;36611;51.638;5.784;2023-03-03T09:36:35;102604.69;;;20.38;31.61
48848;BME280;36611;51.638;5.784;2023-03-03T09:39:22;102596.28;;;20.30;31.72
48848;BME280;36611;51.638;5.784;2023-03-03T09:47:54;102602.16;;;20.57;31.85
48848;BME280;36611;51.638;5.784;2023-03-03T09:50:43;102604.28;;;20.54;32.13
48848;BME280;36611;51.638;5.784;2023-03-03T09:56:50;102607.06;;;20.96;31.60
48848;BME280;36611;51.638;5.784;2023-03-03T09:59:38;102607.38;;;21.02;31.46
48848;BME280;36611;51.638;5.784;2023-03-03T10:10:36;102624.03;;;21.20;31.71
48848;BME280;36611;51.638;5.784;2023-03-03T15:56:45;102435.28;;;21.42;30.83
48848;BME280;36611;51.638;5.784;2023-03-03T15:59:39;102424.53;;;21.60;30.27
48848;BME280;36611;51.638;5.784;2023-03-03T16:05:12;102422.53;;;21.72;30.41
48848;BME280;36611;51.638;5.784;2023-03-03T16:08:09;102412.88;;;21.87;31.39
48848;BME280;36611;51.638;5.784;2023-03-03T16:16:48;102412.03;;;22.15;30.88
48848;BME280;36611;51.638;5.784;2023-03-03T16:19:41;102413.88;;;22.25;30.48
48848;BME280;36611;51.638;5.784;2023-03-03T16:22:26;102416.78;;;22.33;30.69
48848;BME280;36611;51.638;5.784;2023-03-03T16:28:05;102411.41;;;22.41;30.55
48848;BME280;36611;51.638;5.784;2023-03-03T16:39:01;102419.06;;;22.28;30.37
48848;BME280;36611;51.638;5.784;2023-03-03T16:44:38;102424.53;;;21.99;30.40
48848;BME280;36611;51.638;5.784;2023-03-03T16:53:17;102441.13;;;22.16;30.66
48848;BME280;36611;51.638;5.784;2023-03-03T16:55:51;102445.28;;;21.92;31.32
48848;BME280;36611;51.638;5.784;2023-03-03T17:03:52;102449.63;;;22.04;31.46
48848;BME280;36611;51.638;5.784;2023-03-03T17:09:35;102456.78;;;21.95;31.61
48848;BME280;36611;51.638;5.784;2023-03-03T17:22:58;102474.06;;;21.96;31.42
48848;BME280;36611;51.638;5.784;2023-03-03T17:25:43;102478.38;;;21.98;31.52
48848;BME280;36611;51.638;5.784;2023-03-03T17:29:03;102471.91;;;21.99;31.17
48848;BME280;36611;51.638;5.784;2023-03-03T17:32:05;102475.13;;;22.04;31.40
48848;BME280;36611;51.638;5.784;2023-03-03T17:34:12;102479.56;;;22.05;31.27
48848;BME280;36611;51.638;5.784;2023-03-03T17:37:23;102482.47;;;22.04;31.02
48848;BME280;36611;51.638;5.784;2023-03-03T17:42:53;102483.91;;;22.08;30.92
48848;BME280;36611;51.638;5.784;2023-03-03T17:45:24;102492.09;;;22.08;31.06
48848;BME280;36611;51.638;5.784;2023-03-03T17:53:41;102496.25;;;22.02;31.00
48848;BME280;36611;51.638;5.784;2023-03-03T17:56:21;102501.00;;;22.00;31.43
48848;BME280;36611;51.638;5.784;2023-03-03T17:59:06;102513.81;;;21.90;31.37
48848;BME280;36611;51.638;5.784;2023-03-03T18:15:54;102517.81;;;21.76;32.21
48848;BME280;36611;51.638;5.784;2023-03-03T18:19:08;102519.81;;;21.65;32.75
48848;BME280;36611;51.638;5.784;2023-03-03T18:22:10;102520.25;;;21.70;32.57
48848;BME280;36611;51.638;5.784;2023-03-03T18:40:51;102532.81;;;21.92;32.69
48848;BME280;36611;51.638;5.784;2023-03-03T18:44:22;102542.03;;;21.91;32.96
48848;BME280;36611;51.638;5.784;2023-03-03T18:46:49;102541.03;;;21.92;32.68
48848;BME280;36611;51.638;5.784;2023-03-03T18:49:17;102540.16;;;21.91;32.90
48848;BME280;36611;51.638;5.784;2023-03-03T19:04:52;102544.91;;;21.89;32.67
48848;BME280;36611;51.638;5.784;2023-03-03T19:08:03;102558.56;;;21.89;32.69
48848;BME280;36611;51.638;5.784;2023-03-03T19:10:49;102554.97;;;21.88;32.75
48848;BME280;36611;51.638;5.784;2023-03-03T19:16:06;102555.41;;;21.84;32.57
48848;BME280;36611;51.638;5.784;2023-03-03T19:23:58;102554.34;;;21.66;32.85
48848;BME280;36611;51.638;5.784;2023-03-03T19:29:17;102558.38;;;21.62;33.07
48848;BME280;36611;51.638;5.784;2023-03-03T19:31:47;102558.38;;;21.62;32.63
48848;BME280;36611;51.638;5.784;2023-03-03T19:42:47;102551.44;;;21.58;33.08
48848;BME280;36611;51.638;5.784;2023-03-03T19:45:31;102555.19;;;21.56;32.66
48848;BME280;36611;51.638;5.784;2023-03-03T19:48:42;102557.16;;;21.54;33.02
48848;BME280;36611;51.638;5.784;2023-03-03T19:53:53;102563.75;;;21.42;33.37
48848;BME280;36611;51.638;5.784;2023-03-03T19:59:29;102556.72;;;21.19;33.21
48848;BME280;36611;51.638;5.784;2023-03-03T20:04:56;102559.25;;;21.11;33.71
48848;BME280;36611;51.638;5.784;2023-03-03T20:18:10;102567.22;;;21.44;33.14
48848;BME280;36611;51.638;5.784;2023-03-03T20:24:15;102569.91;;;21.35;33.19
48848;BME280;36611;51.638;5.784;2023-03-03T20:26:58;102571.50;;;21.37;33.28
48848;BME280;36611;51.638;5.784;2023-03-03T20:32:58;102578.50;;;21.30;33.57
48848;BME280;36611;51.638;5.784;2023-03-03T20:35:48;102584.13;;;21.29;33.35
48848;BME280;36611;51.638;5.784;2023-03-03T20:46:57;102586.50;;;21.22;33.24
48848;BME280;36611;51.638;5.784;2023-03-03T20:55:17;102581.38;;;21.08;33.44
48848;BME280;36611;51.638;5.784;2023-03-03T20:58:58;102584.25;;;21.06;33.26
48848;BME280;36611;51.638;5.784;2023-03-03T21:01:11;102584.34;;;20.95;33.42
48848;BME280;36611;51.638;5.784;2023-03-03T21:03:42;102582.34;;;20.97;33.92
48848;BME280;36611;51.638;5.784;2023-03-03T21:06:15;102580.94;;;21.03;33.86
48848;BME280;36611;51.638;5.784;2023-03-03T21:08:51;102581.66;;;21.05;33.91
48848;BME280;36611;51.638;5.784;2023-03-03T21:13:58;102582.47;;;20.96;33.72
48848;BME280;36611;51.638;5.784;2023-03-03T21:16:35;102580.66;;;21.06;33.92
48848;BME280;36611;51.638;5.784;2023-03-03T21:21:31;102585.06;;;20.97;33.97
48848;BME280;36611;51.638;5.784;2023-03-03T21:23:58;102583.34;;;20.96;33.72
48848;BME280;36611;51.638;5.784;2023-03-03T21:29:27;102584.34;;;20.95;33.61
48848;BME280;36611;51.638;5.784;2023-03-03T21:32:02;102589.66;;;20.97;33.66
48848;BME280;36611;51.638;5.784;2023-03-03T21:34:34;102590.06;;;20.92;33.61
48848;BME280;36611;51.638;5.784;2023-03-03T21:37:12;102584.41;;;20.84;33.75
48848;BME280;36611;51.638;5.784;2023-03-03T21:39:42;102586.63;;;20.79;33.58
48848;BME280;36611;51.638;5.784;2023-03-03T21:42:14;102578.84;;;20.74;33.56
48848;BME280;36611;51.638;5.784;2023-03-03T21:44:45;102586.50;;;20.80;34.02
48848;BME280;36611;51.638;5.784;2023-03-03T21:47:14;102584.31;;;20.74;33.62
48848;BME280;36611;51.638;5.784;2023-03-03T21:49:44;102583.78;;;20.80;33.88
48848;BME280;36611;51.638;5.784;2023-03-03T21:52:12;102580.97;;;20.71;33.54
48848;BME280;36611;51.638;5.784;2023-03-03T21:54:40;102581.19;;;20.79;33.91
48848;BME280;36611;51.638;5.784;2023-03-03T21:57:06;102578.59;;;20.98;33.81
48848;BME280;36611;51.638;5.784;2023-03-03T21:59:33;102570.19;;;21.11;33.61
48848;BME280;36611;51.638;5.784;2023-03-03T22:01:59;102576.31;;;21.24;33.41
48848;BME280;36611;51.638;5.784;2023-03-03T22:04:27;102570.59;;;21.27;33.83
48848;BME280;36611;51.638;5.784;2023-03-03T22:06:53;102573.31;;;21.06;33.06
48848;BME280;36611;51.638;5.784;2023-03-03T22:09:20;102574.06;;;19.91;33.23
48848;BME280;36611;51.638;5.784;2023-03-03T22:11:47;102569.44;;;20.03;34.30
48848;BME280;36611;51.638;5.784;2023-03-03T22:14:14;102568.44;;;20.15;34.40
48848;BME280;36611;51.638;5.784;2023-03-03T22:16:41;102566.84;;;20.45;33.73
48848;BME280;36611;51.638;5.784;2023-03-03T22:19:07;102555.41;;;20.72;33.99
48848;BME280;36611;51.638;5.784;2023-03-03T22:21:35;102553.81;;;20.90;33.88
48848;BME280;36611;51.638;5.784;2023-03-03T22:24:02;102555.34;;;21.04;33.62
48848;BME280;36611;51.638;5.784;2023-03-03T22:26:28;102556.22;;;20.83;33.20
48848;BME280;36611;51.638;5.784;2023-03-03T22:28:55;102556.63;;;21.00;33.54
48848;BME280;36611;51.638;5.784;2023-03-03T22:31:21;102555.81;;;21.09;33.59
48848;BME280;36611;51.638;5.784;2023-03-03T22:33:48;102550.47;;;21.07;33.04
48848;BME280;36611;51.638;5.784;2023-03-03T22:36:15;102554.75;;;20.79;32.93